Time;durP1;ratioP1;P1;durP2;ratioP2;P2;SDS_P1;SDS_P2;PMS_P1;PMS_P2;Temp;Humidity;BMP_temperature;BMP_pressure;BME280_temperature;BME280_humidity;BME280_pressure;Samples;Min_cycle;Max_cycle;Signal;HPM_P1;HPM_P2
2021/10/31 05:11:20;;;;;;;38.11;18.08;;;;;;;-0.13;93.94;101008.76;369216;142;882872;-57
2021/10/31 05:12:25;;;;;;;35.59;18.35;;;;;;;-0.21;93.95;101016.01;365358;147;857397;-56
2021/10/31 05:13:26;;;;;;;27.89;15.79;;;;;;;-0.18;93.98;101011.08;363437;146;857510;-57
2021/10/31 05:14:27;;;;;;;25.79;14.33;;;;;;;-0.10;94.01;101016.55;363478;147;866814;-61
2021/10/31 05:15:29;;;;;;;24.66;13.23;;;;;;;0.01;94.04;101012.93;355809;150;858182;-58
2021/10/31 05:16:35;;;;;;;28.39;13.24;;;;;;;0.16;94.01;101010.28;363347;146;859797;-59
2021/10/31 05:17:36;;;;;;;23.66;13.10;;;;;;;0.34;93.92;101010.36;363771;146;857321;-58
2021/10/31 05:18:38;;;;;;;25.93;14.13;;;;;;;0.55;93.71;101014.79;361298;147;864933;-57
2021/10/31 05:19:39;;;;;;;22.36;13.25;;;;;;;0.76;93.45;101012.44;362106;147;859102;-58
2021/10/31 05:20:41;;;;;;;22.38;13.48;;;;;;;1.00;93.11;101010.19;361104;147;859743;-58
2021/10/31 05:21:43;;;;;;;26.29;13.58;;;;;;;1.24;92.70;101013.85;365138;147;859993;-57
2021/10/31 05:22:45;;;;;;;22.41;13.61;;;;;;;1.49;92.20;101014.99;364393;147;866268;-57
2021/10/31 05:23:47;;;;;;;23.39;14.13;;;;;;;1.73;91.55;101020.36;363902;146;859210;-57
2021/10/31 05:24:49;;;;;;;23.85;13.70;;;;;;;1.98;90.80;101016.34;361222;146;857280;-55
2021/10/31 05:25:50;;;;;;;22.63;13.94;;;;;;;;;;365457;146;865216;-55
2021/10/31 05:26:52;;;;;;;21.37;13.31;;;;;;;;;;363884;147;866228;-55
2021/10/31 05:27:53;;;;;;;26.92;14.71;;;;;;;;;;364058;146;856697;-56
2021/10/31 05:28:55;;;;;;;26.40;15.25;;;;;;;;;;361524;146;857414;-56
2021/10/31 05:29:57;;;;;;;26.55;16.56;;;;;;;;;;361827;147;865974;-55
2021/10/31 05:30:58;;;;;;;25.89;15.46;;;;;;;;;;362961;146;865557;-55
2021/10/31 05:32:00;;;;;;;28.52;16.63;;;;;;;;;;363266;147;865237;-55
2021/10/31 05:33:05;;;;;;;28.81;17.69;;;;;;;;;;364168;147;859527;-55
2021/10/31 05:34:07;;;;;;;26.31;17.08;;;;;;;;;;361694;147;858188;-54
2021/10/31 05:35:09;;;;;;;28.01;17.94;;;;;;;;;;363334;146;857873;-59
2021/10/31 05:36:11;;;;;;;30.55;17.29;;;;;;;;;;363019;146;867000;-58
2021/10/31 05:37:13;;;;;;;30.91;17.99;;;;;;;;;;364061;146;859143;-59
2021/10/31 05:38:18;;;;;;;31.81;19.22;;;;;;;;;;363335;146;861781;-60
2021/10/31 05:39:18;;;;;;;32.21;18.42;;;;;;;;;;360142;146;857393;-58
2021/10/31 05:40:21;;;;;;;30.67;18.45;;;;;;;;;;358598;147;859343;-64
2021/10/31 05:41:22;;;;;;;34.42;20.64;;;;;;;;;;362629;146;858155;-61
2021/10/31 05:42:24;;;;;;;36.76;19.45;;;;;;;;;;361863;147;857408;-67
2021/10/31 05:43:26;;;;;;;30.68;19.83;;;;;;;;;;363613;147;866189;-63
2021/10/31 05:44:28;;;;;;;35.77;19.02;;;;;;;;;;363388;146;865010;-63
2021/10/31 05:45:29;;;;;;;36.13;20.43;;;;;;;;;;361131;146;867270;-57
2021/10/31 05:46:32;;;;;;;32.85;18.47;;;;;;;;;;362459;147;857358;-57
2021/10/31 05:47:36;;;;;;;31.11;19.18;;;;;;;;;;363219;146;857282;-65
2021/10/31 05:48:38;;;;;;;32.38;19.52;;;;;;;;;;363225;147;858976;-66
2021/10/31 05:49:40;;;;;;;32.17;19.69;;;;;;;;;;363551;147;859203;-61
2021/10/31 05:50:41;;;;;;;33.79;20.36;;;;;;;;;;363817;147;865082;-68
2021/10/31 05:51:43;;;;;;;28.68;19.06;;;;;;;;;;361855;147;859203;-64
2021/10/31 05:52:45;;;;;;;33.49;19.30;;;;;;;;;;361078;146;865248;-59
2021/10/31 05:53:46;;;;;;;29.97;18.31;;;;;;;;;;361254;147;866348;-57
2021/10/31 05:54:48;;;;;;;29.47;18.59;;;;;;;;;;362624;146;857227;-59
2021/10/31 05:55:50;;;;;;;31.02;19.39;;;;;;;;;;354751;149;857438;-56
2021/10/31 05:56:52;;;;;;;31.16;18.19;;;;;;;;;;352043;147;856801;-55
2021/10/31 05:57:53;;;;;;;31.14;18.64;;;;;;;;;;363127;147;857794;-56
2021/10/31 05:58:55;;;;;;;33.43;18.74;;;;;;;;;;363480;147;856898;-56
2021/10/31 05:59:57;;;;;;;32.31;18.21;;;;;;;;;;362442;146;857484;-55
2021/10/31 06:00:58;;;;;;;35.22;18.46;;;;;;;;;;362807;147;857358;-56
2021/10/31 06:02:00;;;;;;;34.16;20.13;;;;;;;;;;363151;146;859313;-56
2021/10/31 06:03:01;;;;;;;33.81;19.33;;;;;;;;;;363621;147;861483;-62
2021/10/31 06:04:03;;;;;;;34.16;19.53;;;;;;;;;;358671;147;865841;-61
2021/10/31 06:05:06;;;;;;;34.68;20.28;;;;;;;;;;362530;147;859361;-54
2021/10/31 06:06:08;;;;;;;29.82;18.15;;;;;;;;;;361509;146;860408;-55
2021/10/31 06:07:10;;;;;;;34.61;19.93;;;;;;;;;;361540;147;857419;-55
2021/10/31 06:08:17;;;;;;;36.06;19.53;;;;;;;;;;362565;147;857350;-59
2021/10/31 06:09:15;;;;;;;33.22;19.23;;;;;;;;;;361107;146;857462;-58
2021/10/31 06:10:16;;;;;;;29.89;17.51;;;;;;;;;;362820;147;859047;-60
2021/10/31 06:11:18;;;;;;;31.96;19.42;;;;;;;;;;362176;147;865449;-57
2021/10/31 06:12:20;;;;;;;31.29;17.89;;;;;;;;;;355223;149;858457;-57
2021/10/31 06:13:22;;;;;;;29.93;17.42;;;;;;;;;;355140;149;857457;-57
2021/10/31 06:14:25;;;;;;;33.13;18.92;;;;;;;;;;351436;150;859803;-55
2021/10/31 06:15:26;;;;;;;31.35;18.69;;;;;;;;;;355353;149;865590;-55
2021/10/31 06:16:28;;;;;;;35.29;19.71;;;;;;;;;;357407;149;865783;-56
2021/10/31 06:17:30;;;;;;;31.09;18.79;;;;;;;;;;357476;149;857242;-54
2021/10/31 06:18:31;;;;;;;32.16;18.56;;;;;;;;;;348202;152;859326;-55
2021/10/31 06:19:33;;;;;;;32.22;19.47;;;;;;;;;;349770;152;866806;-55
2021/10/31 06:20:35;;;;;;;23.66;14.74;;;;;;;;;;350535;152;857662;-57
2021/10/31 06:21:36;;;;;;;27.99;17.98;;;;;;;;;;350287;150;865050;-55
2021/10/31 06:22:38;;;;;;;37.20;18.74;;;;;;;;;;356587;149;857318;-55
2021/10/31 06:23:40;;;;;;;30.17;18.37;;;;;;;;;;355151;149;865296;-54
2021/10/31 06:24:41;;;;;;;34.07;18.75;;;;;;;;;;356723;150;857762;-54
2021/10/31 06:25:43;;;;;;;32.38;18.96;;;;;;;;;;355128;149;859907;-56
2021/10/31 06:26:45;;;;;;;31.93;18.26;;;;;;;;;;348686;151;861107;-54
2021/10/31 06:27:46;;;;;;;33.02;18.49;;;;;;;;;;343831;156;857293;-54
2021/10/31 06:28:48;;;;;;;29.30;16.41;;;;;;;;;;339896;156;865052;-54
2021/10/31 06:29:50;;;;;;;26.65;16.25;;;;;;;;;;346129;153;861282;-56
2021/10/31 06:30:52;;;;;;;31.13;18.35;;;;;;;;;;350406;151;857332;-55
2021/10/31 06:31:53;;;;;;;31.47;18.72;;;;;;;;;;350484;152;864107;-56
2021/10/31 06:32:55;;;;;;;31.46;18.86;;;;;;;;;;350322;153;865009;-55
2021/10/31 06:33:57;;;;;;;30.24;18.89;;;;;;;;;;350361;152;858838;-55
2021/10/31 06:34:59;;;;;;;26.96;14.79;;;;;;;;;;349458;153;866795;-55
2021/10/31 06:36:01;;;;;;;32.05;19.30;;;;;;;;;;350001;152;866847;-55
2021/10/31 06:37:02;;;;;;;24.93;14.39;;;;;;;;;;345529;153;857373;-55
2021/10/31 06:38:04;;;;;;;30.11;14.62;;;;;;;;;;340913;155;857459;-55
2021/10/31 08:41:37;;;;;;;13.93;8.14;;;;;;;9.30;62.72;101020.74;371460;141;873721;-61
2021/10/31 08:42:39;;;;;;;15.17;9.05;;;;;;;9.25;63.29;101028.45;362590;144;856496;-61
2021/10/31 08:43:41;;;;;;;12.67;8.11;;;;;;;9.30;63.50;101013.88;362908;144;856252;-60
2021/10/31 08:44:42;;;;;;;12.08;8.03;;;;;;;9.38;63.27;101023.45;365707;145;856580;-63
2021/10/31 08:45:44;;;;;;;16.60;10.15;;;;;;;9.48;63.21;101018.42;362496;144;863953;-62
2021/10/31 08:46:46;;;;;;;15.92;9.50;;;;;;;9.58;62.15;101014.25;363735;145;857335;-61
2021/10/31 08:47:48;;;;;;;14.84;9.95;;;;;;;9.71;61.81;101019.58;364139;144;856194;-59
2021/10/31 08:48:50;;;;;;;12.21;8.07;;;;;;;9.83;61.72;101011.13;361702;145;863979;-59
2021/10/31 08:49:52;;;;;;;18.44;8.01;;;;;;;9.99;61.62;101001.81;365074;145;863879;-58
2021/10/31 08:50:53;;;;;;;13.99;8.33;;;;;;;10.07;60.25;101010.52;364303;145;856184;-57
2021/10/31 08:51:56;;;;;;;17.21;8.27;;;;;;;10.18;60.01;101003.78;365570;145;856197;-66
2021/10/31 08:52:58;;;;;;;12.01;7.99;;;;;;;10.30;59.47;101010.78;362197;145;864176;-61
2021/10/31 08:54:00;;;;;;;16.32;8.69;;;;;;;10.36;58.76;101002.23;364008;144;864172;-64
2021/10/31 08:55:03;;;;;;;9.44;6.24;;;;;;;10.45;58.97;101007.53;360765;145;863862;-59
2021/10/31 08:56:06;;;;;;;11.22;7.12;;;;;;;10.57;59.10;101006.75;361355;144;856264;-58
2021/10/31 08:57:08;;;;;;;11.89;7.84;;;;;;;10.68;58.33;101004.27;363395;145;856519;-59
2021/10/31 08:58:10;;;;;;;12.50;6.72;;;;;;;10.78;56.54;101005.23;360512;148;856356;-63
2021/10/31 08:59:12;;;;;;;18.03;8.49;;;;;;;10.90;57.88;101004.45;358281;147;856369;-63
2021/10/31 09:00:13;;;;;;;16.24;9.54;;;;;;;11.03;58.46;100997.65;364759;144;856414;-61
2021/10/31 09:01:15;;;;;;;20.34;8.36;;;;;;;11.18;57.58;101008.12;365133;144;864202;-60
2021/10/31 09:02:17;;;;;;;11.08;5.77;;;;;;;11.32;57.36;100999.55;363604;144;863862;-61
2021/10/31 09:03:19;;;;;;;9.25;5.81;;;;;;;11.43;56.59;101005.67;362674;145;856376;-58
2021/10/31 09:04:20;;;;;;;8.93;6.11;;;;;;;11.52;55.85;101007.46;362550;144;863780;-58
2021/10/31 09:05:22;;;;;;;9.44;6.52;;;;;;;11.59;55.82;100997.97;363288;146;863784;-58
2021/10/31 09:06:25;;;;;;;9.95;5.53;;;;;;;11.65;55.23;101000.59;363321;144;864046;-58
2021/10/31 09:07:27;;;;;;;8.02;4.76;;;;;;;11.71;54.47;100991.98;363427;144;856186;-58
2021/10/31 14:17:27;;;;;;;15.97;8.33;;;;;;;9.85;53.74;100717.99;372209;142;881579;-61
2021/10/31 14:18:28;;;;;;;19.03;8.19;;;;;;;9.70;53.90;100720.46;362169;147;858356;-61
2021/10/31 14:19:30;;;;;;;18.40;8.79;;;;;;;9.63;54.18;100722.15;362637;144;857279;-61
2021/10/31 14:20:36;;;;;;;18.21;8.74;;;;;;;9.57;54.61;100717.77;351240;149;856272;-60
2021/10/31 14:21:38;;;;;;;18.34;9.11;;;;;;;9.53;54.64;100720.30;352947;145;863994;-60
2021/10/31 14:22:48;;;;;;;17.41;9.41;;;;;;;9.51;54.79;100717.72;358988;147;856313;-60
2021/10/31 14:23:50;;;;;;;17.26;8.50;;;;;;;9.51;54.73;100717.72;360426;144;856174;-60
2021/10/31 14:25:00;;;;;;;16.67;9.21;;;;;;;9.54;54.82;100711.70;363256;144;856097;-61
2021/10/31 14:26:03;;;;;;;16.27;8.45;;;;;;;9.58;54.83;100716.07;364012;145;856098;-59
2021/10/31 14:27:16;;;;;;;18.54;9.01;;;;;;;9.61;54.86;100713.52;363029;144;856110;-61
2021/10/31 14:28:18;;;;;;;14.99;8.92;;;;;;;;;;363737;144;863997;-60
2021/10/31 14:29:24;;;;;;;17.49;8.44;;;;;;;;;;364304;145;856498;-60
2021/10/31 14:30:27;;;;;;;19.38;9.49;;;;;;;;;;362480;144;856107;-59
2021/10/31 14:31:30;;;;;;;16.80;9.31;;;;;;;;;;364623;144;856316;-61
2021/10/31 14:32:46;;;;;;;16.86;9.09;;;;;;;;;;363290;144;856505;-58
2021/10/31 14:33:51;;;;;;;18.40;9.01;;;;;;;;;;363233;144;856541;-59
2021/10/31 14:34:55;;;;;;;19.34;10.19;;;;;;;;;;363106;144;856337;-58
2021/10/31 14:35:58;;;;;;;16.47;10.18;;;;;;;;;;364632;144;856184;-59
2021/10/31 14:37:05;;;;;;;19.15;9.73;;;;;;;;;;364506;145;856103;-58
2021/10/31 14:38:08;;;;;;;20.12;9.67;;;;;;;;;;360711;144;856256;-60
2021/10/31 14:39:11;;;;;;;16.96;9.54;;;;;;;;;;363625;144;856337;-60
2021/10/31 14:40:24;;;;;;;20.27;10.12;;;;;;;;;;363639;144;856960;-60
2021/10/31 14:41:30;;;;;;;18.66;9.68;;;;;;;;;;363816;144;857997;-60
2021/10/31 14:42:31;;;;;;;15.86;9.81;;;;;;;;;;362501;144;857346;-62
2021/10/31 14:43:34;;;;;;;24.50;10.18;;;;;;;;;;363569;145;856992;-62
2021/10/31 14:44:39;;;;;;;16.69;10.15;;;;;;;;;;363074;145;864272;-62
2021/10/31 14:45:41;;;;;;;18.30;9.61;;;;;;;;;;363086;144;856552;-64
2021/10/31 14:46:44;;;;;;;18.51;10.09;;;;;;;;;;357640;145;856773;-61
2021/10/31 14:47:46;;;;;;;20.39;10.41;;;;;;;;;;353988;150;856196;-60
2021/10/31 14:48:50;;;;;;;19.60;9.87;;;;;;;;;;356281;147;856259;-59
2021/10/31 14:49:51;;;;;;;19.04;9.89;;;;;;;;;;364370;144;857142;-60
2021/10/31 14:50:53;;;;;;;17.45;10.19;;;;;;;;;;360737;145;856169;-61
2021/10/31 14:51:58;;;;;;;21.77;10.70;;;;;;;;;;363340;144;856537;-60
2021/10/31 14:53:01;;;;;;;20.32;10.34;;;;;;;;;;364105;145;863659;-60
2021/10/31 14:54:05;;;;;;;20.39;10.60;;;;;;;;;;363727;145;856650;-59
2021/10/31 14:55:12;;;;;;;23.36;10.51;;;;;;;;;;365031;145;863645;-58
2021/10/31 14:56:16;;;;;;;18.16;10.57;;;;;;;;;;362782;145;856390;-59
2021/10/31 14:57:27;;;;;;;20.49;10.63;;;;;;;;;;360275;145;857043;-59
2021/10/31 14:58:27;;;;;;;19.16;10.32;;;;;;;;;;361226;145;856407;-60
2021/10/31 14:59:31;;;;;;;20.29;10.38;;;;;;;;;;365023;145;856930;-60
2021/10/31 15:00:32;;;;;;;22.49;10.90;;;;;;;;;;362885;144;864508;-58
2021/10/31 15:01:37;;;;;;;26.17;10.97;;;;;;;;;;363179;145;863664;-60
2021/10/31 15:02:39;;;;;;;20.05;9.79;;;;;;;;;;361236;147;857016;-61
2021/10/31 15:03:41;;;;;;;18.71;10.01;;;;;;;;;;358929;145;856634;-66
2021/10/31 15:04:43;;;;;;;17.67;10.37;;;;;;;;;;364531;144;857047;-66
2021/10/31 15:05:45;;;;;;;21.91;11.11;;;;;;;;;;364292;145;866203;-69
2021/10/31 15:06:47;;;;;;;28.77;10.26;;;;;;;;;;363843;144;863821;-64
2021/10/31 15:07:49;;;;;;;20.78;10.40;;;;;;;;;;364184;144;856469;-59
2021/10/31 15:08:51;;;;;;;21.41;10.81;;;;;;;;;;363287;145;856140;-58
2021/10/31 15:09:52;;;;;;;19.05;10.07;;;;;;;;;;363304;144;856340;-58
2021/10/31 15:10:54;;;;;;;23.35;10.19;;;;;;;;;;357196;148;856553;-57
2021/10/31 15:11:56;;;;;;;19.16;10.51;;;;;;;;;;358730;147;863713;-58
2021/10/31 15:12:57;;;;;;;21.69;10.53;;;;;;;;;;366997;145;863580;-56
2021/10/31 15:14:00;;;;;;;20.68;10.68;;;;;;;;;;364774;144;856152;-56
2021/10/31 15:15:02;;;;;;;18.39;10.69;;;;;;;;;;364328;144;864523;-56
2021/10/31 15:16:04;;;;;;;23.16;10.55;;;;;;;;;;363920;145;856269;-61
2021/10/31 15:17:05;;;;;;;20.19;11.03;;;;;;;;;;364537;144;856100;-62
2021/10/31 15:18:07;;;;;;;22.64;10.85;;;;;;;;;;366002;144;857091;-61
2021/10/31 15:19:08;;;;;;;25.46;10.75;;;;;;;;;;360435;146;864008;-62
2021/10/31 15:20:11;;;;;;;21.84;10.73;;;;;;;;;;360358;145;864459;-61
2021/10/31 15:21:14;;;;;;;20.23;11.23;;;;;;;;;;364788;145;856492;-56
2021/10/31 15:22:16;;;;;;;22.69;10.48;;;;;;;;;;364309;144;856360;-54
2021/10/31 15:23:17;;;;;;;25.41;11.61;;;;;;;;;;364658;145;863651;-55
2021/10/31 15:24:20;;;;;;;21.96;10.85;;;;;;;;;;365113;144;856892;-55
2021/10/31 15:25:22;;;;;;;20.85;11.34;;;;;;;;;;355366;148;856694;-55
2021/10/31 15:26:23;;;;;;;19.61;10.93;;;;;;;;;;355053;148;856279;-56
2021/10/31 15:27:25;;;;;;;21.46;10.91;;;;;;;;;;364141;144;864631;-57
2021/10/31 15:28:26;;;;;;;22.07;11.10;;;;;;;;;;363813;145;863832;-55
2021/10/31 15:29:28;;;;;;;33.83;12.63;;;;;;;;;;363715;144;863817;-57
2021/10/31 15:30:30;;;;;;;21.29;11.67;;;;;;;;;;364096;145;856911;-57
2021/10/31 15:31:31;;;;;;;19.45;11.12;;;;;;;;;;364353;145;863694;-56
2021/10/31 15:32:35;;;;;;;21.09;10.61;;;;;;;;;;365537;144;856282;-56
2021/10/31 15:33:38;;;;;;;26.33;11.86;;;;;;;;;;365394;144;856760;-55
2021/10/31 15:34:40;;;;;;;26.97;11.64;;;;;;;;;;367242;144;856708;-55
2021/10/31 15:35:41;;;;;;;20.39;10.76;;;;;;;;;;363919;145;857046;-55
2021/10/31 15:36:43;;;;;;;18.20;10.99;;;;;;;;;;364408;144;864303;-55
2021/10/31 15:37:45;;;;;;;19.54;11.05;;;;;;;;;;365151;144;863647;-57
2021/10/31 15:38:47;;;;;;;23.79;11.39;;;;;;;;;;364884;144;863987;-56
2021/10/31 15:39:49;;;;;;;21.20;11.12;;;;;;;;;;364619;144;856184;-56
2021/10/31 15:40:50;;;;;;;22.37;11.05;;;;;;;;;;364078;144;863688;-55
2021/10/31 15:41:52;;;;;;;19.46;10.76;;;;;;;;;;365073;145;856206;-56
2021/10/31 15:42:53;;;;;;;20.64;11.54;;;;;;;;;;365219;145;856977;-56
2021/10/31 15:43:55;;;;;;;19.46;11.21;;;;;;;;;;363998;144;856143;-56
2021/10/31 15:44:56;;;;;;;21.74;11.29;;;;;;;;;;366025;144;856191;-55
2021/10/31 15:45:58;;;;;;;22.03;11.12;;;;;;;;;;364724;144;856554;-57
2021/10/31 15:47:02;;;;;;;19.57;11.60;;;;;;;;;;364425;144;863603;-58
2021/10/31 15:48:03;;;;;;;21.39;11.73;;;;;;;;;;363770;144;856513;-59
2021/10/31 15:49:06;;;;;;;19.54;11.19;;;;;;;;;;365548;145;857301;-56
2021/10/31 15:50:08;;;;;;;20.48;11.37;;;;;;;;;;365109;144;857056;-56
2021/10/31 15:51:10;;;;;;;18.91;11.08;;;;;;;;;;363810;144;856418;-57
2021/10/31 15:52:14;;;;;;;22.06;11.94;;;;;;;;;;364247;144;856280;-59
2021/10/31 15:53:15;;;;;;;26.23;11.93;;;;;;;;;;365958;144;863882;-58
2021/10/31 15:54:17;;;;;;;19.93;11.37;;;;;;;;;;364367;144;856176;-58
2021/10/31 15:55:18;;;;;;;23.26;11.93;;;;;;;;;;364471;145;864341;-60
2021/10/31 15:56:20;;;;;;;22.76;13.18;;;;;;;;;;363667;145;863667;-59
2021/10/31 15:57:22;;;;;;;22.24;13.34;;;;;;;;;;364201;144;863737;-59
2021/10/31 15:58:26;;;;;;;28.50;14.16;;;;;;;;;;364056;145;856222;-60
2021/10/31 15:59:27;;;;;;;36.12;17.22;;;;;;;;;;364066;144;856264;-59
2021/10/31 16:00:29;;;;;;;46.24;19.69;;;;;;;;;;363738;145;856186;-59
2021/10/31 16:01:31;;;;;;;40.78;19.79;;;;;;;;;;363813;144;863711;-59
2021/10/31 16:02:35;;;;;;;40.77;21.95;;;;;;;;;;364186;144;856865;-59
2021/10/31 16:03:36;;;;;;;45.74;24.04;;;;;;;;;;364766;145;856838;-59
2021/10/31 16:04:38;;;;;;;48.51;24.45;;;;;;;;;;365067;144;856279;-59
2021/10/31 16:05:40;;;;;;;46.39;23.51;;;;;;;;;;364196;144;864100;-60
2021/10/31 16:06:42;;;;;;;52.05;24.93;;;;;;;;;;364428;145;864048;-60
2021/10/31 16:07:44;;;;;;;47.15;24.02;;;;;;;;;;364752;144;856873;-58
2021/10/31 16:08:45;;;;;;;48.26;24.04;;;;;;;;;;364064;145;856655;-59
2021/10/31 16:09:50;;;;;;;51.51;23.95;;;;;;;;;;365274;144;865260;-59
2021/10/31 16:10:50;;;;;;;46.46;24.25;;;;;;;;;;364096;145;856834;-60
2021/10/31 16:11:52;;;;;;;44.71;23.64;;;;;;;;;;364211;144;856419;-58
2021/10/31 16:12:54;;;;;;;49.29;24.04;;;;;;;;;;363872;144;856572;-62
2021/10/31 16:13:55;;;;;;;48.04;23.34;;;;;;;;;;364157;145;856173;-59
2021/10/31 16:14:57;;;;;;;44.69;23.00;;;;;;;;;;364482;144;856196;-59
2021/10/31 16:15:58;;;;;;;56.56;24.05;;;;;;;;;;363882;144;856327;-61
2021/10/31 16:17:00;;;;;;;47.86;23.49;;;;;;;;;;364892;144;863846;-61
2021/10/31 16:18:02;;;;;;;47.83;22.44;;;;;;;;;;363348;147;863967;-61
2021/10/31 16:19:03;;;;;;;46.40;22.71;;;;;;;;;;363914;144;863934;-61
2021/10/31 16:20:05;;;;;;;44.32;21.84;;;;;;;;;;363790;144;863967;-62
2021/10/31 16:21:07;;;;;;;48.68;21.84;;;;;;;;;;363965;145;864146;-61
2021/10/31 16:22:08;;;;;;;45.30;20.64;;;;;;;;;;364339;144;856333;-61
2021/10/31 16:23:10;;;;;;;37.24;19.62;;;;;;;;;;364593;144;859076;-62
2021/10/31 16:24:12;;;;;;;39.44;19.45;;;;;;;;;;363512;144;857379;-63
2021/10/31 16:25:14;;;;;;;36.98;18.99;;;;;;;;;;364196;144;858912;-60
2021/10/31 16:26:18;;;;;;;30.27;17.31;;;;;;;;;;364050;144;859809;-61
2021/10/31 16:27:20;;;;;;;33.36;18.41;;;;;;;;;;363123;145;866090;-60
2021/10/31 16:28:22;;;;;;;29.03;17.26;;;;;;;;;;365328;144;857726;-62
2021/10/31 16:29:26;;;;;;;35.09;17.04;;;;;;;;;;363835;144;859014;-61
2021/10/31 16:30:28;;;;;;;35.19;17.65;;;;;;;;;;364067;144;859252;-61
2021/10/31 16:31:30;;;;;;;28.93;15.95;;;;;;;;;;363159;144;857597;-62
2021/10/31 16:32:32;;;;;;;31.50;16.28;;;;;;;;;;364555;145;865921;-60
2021/10/31 16:33:33;;;;;;;29.69;15.81;;;;;;;;;;365135;144;857869;-61
2021/10/31 16:34:35;;;;;;;31.06;15.91;;;;;;;;;;364205;144;857237;-66
2021/10/31 16:35:37;;;;;;;24.78;15.28;;;;;;;;;;363235;144;858606;-58
2021/10/31 16:36:38;;;;;;;28.89;16.39;;;;;;;;;;363653;145;858220;-60
2021/10/31 16:37:44;;;;;;;30.94;15.54;;;;;;;;;;362775;144;865528;-58
2021/10/31 16:38:44;;;;;;;25.29;15.11;;;;;;;;;;362655;148;865103;-58
2021/10/31 16:39:45;;;;;;;22.75;14.69;;;;;;;;;;363178;146;857745;-58
2021/10/31 16:40:47;;;;;;;20.98;13.55;;;;;;;;;;363957;145;858164;-58
2021/10/31 16:41:49;;;;;;;25.36;15.23;;;;;;;;;;363499;144;864915;-60
2021/10/31 16:42:52;;;;;;;23.72;13.74;;;;;;;;;;364945;145;858392;-58
2021/10/31 16:43:54;;;;;;;22.31;14.30;;;;;;;;;;363167;145;859591;-58
2021/10/31 16:44:56;;;;;;;25.29;14.36;;;;;;;;;;363438;144;857679;-59
2021/10/31 16:45:58;;;;;;;27.21;13.67;;;;;;;;;;364402;145;866569;-58
2021/10/31 16:47:00;;;;;;;23.41;14.24;;;;;;;;;;364756;145;859809;-59
2021/10/31 16:48:02;;;;;;;22.89;13.58;;;;;;;;;;363020;144;865268;-61
2021/10/31 16:49:04;;;;;;;22.98;13.47;;;;;;;;;;363536;145;857416;-59
2021/10/31 16:50:06;;;;;;;23.83;14.17;;;;;;;;;;364783;145;859074;-60
2021/10/31 16:51:08;;;;;;;23.94;13.99;;;;;;;;;;364305;144;857947;-60
2021/10/31 16:52:10;;;;;;;24.72;13.69;;;;;;;;;;365253;144;865022;-60
2021/10/31 16:53:13;;;;;;;21.37;13.49;;;;;;;;;;366214;145;866764;-61
2021/10/31 16:54:15;;;;;;;30.26;14.48;;;;;;;;;;364368;144;866742;-63
2021/10/31 16:55:17;;;;;;;21.59;13.66;;;;;;;;;;363819;144;857970;-60
2021/10/31 16:56:18;;;;;;;28.41;13.44;;;;;;;;;;362996;146;864935;-59
2021/10/31 16:57:20;;;;;;;25.44;13.85;;;;;;;;;;366516;145;865099;-60
2021/10/31 16:58:23;;;;;;;24.67;13.88;;;;;;;;;;364827;144;857376;-60
2021/10/31 16:59:26;;;;;;;23.24;13.99;;;;;;;;;;363903;144;858765;-62
2021/10/31 17:00:27;;;;;;;22.71;14.11;;;;;;;;;;366792;145;857639;-61
2021/10/31 17:01:30;;;;;;;25.23;13.71;;;;;;;;;;365309;144;866554;-61
2021/10/31 17:02:31;;;;;;;22.99;12.89;;;;;;;;;;363823;144;865696;-60
2021/10/31 17:03:33;;;;;;;21.57;13.79;;;;;;;;;;363453;145;857278;-60
2021/10/31 17:04:34;;;;;;;22.73;13.63;;;;;;;;;;363242;145;857226;-60
2021/10/31 17:05:36;;;;;;;20.41;12.57;;;;;;;;;;364027;144;859895;-60
2021/10/31 17:06:38;;;;;;;25.31;13.35;;;;;;;;;;362900;147;866669;-60
2021/10/31 17:07:42;;;;;;;21.14;11.99;;;;;;;;;;364663;145;859320;-60
2021/10/31 17:08:44;;;;;;;22.38;12.27;;;;;;;;;;354216;147;857819;-61
2021/10/31 17:09:46;;;;;;;21.34;12.46;;;;;;;;;;357508;145;857823;-61
2021/10/31 17:10:56;;;;;;;20.38;12.52;;;;;;;;;;364244;145;865348;-60
2021/10/31 17:11:56;;;;;;;20.94;12.66;;;;;;;;;;362892;145;864866;-60
2021/10/31 17:12:58;;;;;;;24.21;12.79;;;;;;;;;;363748;144;857726;-60
2021/10/31 17:14:04;;;;;;;26.39;12.75;;;;;;;;;;363726;145;864979;-60
2021/10/31 17:15:06;;;;;;;21.24;12.74;;;;;;;;;;362960;144;857307;-61
2021/10/31 17:16:07;;;;;;;22.96;13.16;;;;;;;;;;363288;144;859370;-60
2021/10/31 17:17:09;;;;;;;21.29;12.13;;;;;;;;;;363911;145;857381;-60
2021/10/31 17:18:10;;;;;;;22.99;13.18;;;;;;;;;;363227;148;866491;-60
2021/10/31 17:19:12;;;;;;;27.19;13.58;;;;;;;;;;364534;144;859643;-60
2021/10/31 17:20:14;;;;;;;24.72;13.97;;;;;;;;;;362924;144;857613;-61
2021/10/31 17:21:15;;;;;;;22.19;12.95;;;;;;;;;;363845;145;867174;-60
2021/10/31 17:22:17;;;;;;;23.38;13.71;;;;;;;;;;363037;144;860011;-60
2021/10/31 17:23:18;;;;;;;21.96;12.70;;;;;;;;;;364136;144;865717;-60
2021/10/31 17:24:20;;;;;;;28.74;13.89;;;;;;;;;;365658;145;865748;-60
2021/10/31 17:25:28;;;;;;;24.21;13.18;;;;;;;;;;355619;147;865136;-60
2021/10/31 17:26:26;;;;;;;25.17;13.99;;;;;;;;;;349436;148;857723;-60
2021/10/31 17:27:28;;;;;;;26.25;14.81;;;;;;;;;;351707;151;861626;-59
2021/10/31 17:28:30;;;;;;;27.51;14.99;;;;;;;;;;350347;151;857472;-60
2021/10/31 17:29:32;;;;;;;25.95;14.01;;;;;;;;;;352915;148;857419;-60
2021/10/31 17:30:33;;;;;;;35.16;15.25;;;;;;;;;;350512;150;858885;-60
2021/10/31 17:31:36;;;;;;;24.77;14.22;;;;;;;;;;352307;151;857379;-61
2021/10/31 17:32:38;;;;;;;24.91;14.47;;;;;;;;;;356258;147;864880;-60
2021/10/31 17:33:39;;;;;;;29.99;14.85;;;;;;;;;;356427;147;857743;-61
2021/10/31 17:34:41;;;;;;;23.94;14.13;;;;;;;;;;356039;148;866808;-61
2021/10/31 17:35:43;;;;;;;29.56;15.20;;;;;;;;;;360131;148;859218;-60
2021/10/31 17:36:44;;;;;;;29.39;14.91;;;;;;;;;;351848;150;865988;-60
2021/10/31 17:37:46;;;;;;;27.68;14.56;;;;;;;;;;352254;149;859283;-59
2021/10/31 17:38:48;;;;;;;26.52;15.04;;;;;;;;;;351286;151;857874;-59
2021/10/31 17:39:50;;;;;;;24.16;14.15;;;;;;;;;;356854;145;858763;-61
2021/10/31 17:40:52;;;;;;;25.85;14.33;;;;;;;;;;364164;144;866440;-59
2021/10/31 17:41:53;;;;;;;25.97;15.07;;;;;;;;;;363249;144;864983;-59
2021/10/31 17:42:55;;;;;;;27.10;15.09;;;;;;;;;;366248;145;859087;-57
2021/10/31 17:44:03;;;;;;;29.13;16.30;;;;;;;;;;363236;144;857563;-59
2021/10/31 17:45:05;;;;;;;27.77;14.91;;;;;;;;;;364276;144;864941;-59
2021/10/31 17:46:07;;;;;;;26.40;15.23;;;;;;;;;;364190;147;858735;-59
2021/10/31 17:47:09;;;;;;;28.96;14.66;;;;;;;;;;364942;145;859466;-59
2021/10/31 17:48:10;;;;;;;25.58;15.11;;;;;;;;;;364467;144;857312;-62
2021/10/31 17:49:12;;;;;;;25.57;14.04;;;;;;;;;;364255;145;866630;-62
2021/10/31 17:50:16;;;;;;;28.25;14.38;;;;;;;;;;363240;145;867957;-62
2021/10/31 17:51:20;;;;;;;28.12;15.04;;;;;;;;;;363859;144;858288;-60
2021/10/31 17:52:22;;;;;;;26.57;15.14;;;;;;;;;;363541;145;858594;-60
2021/10/31 17:53:24;;;;;;;28.37;14.39;;;;;;;;;;363194;144;857754;-59
2021/10/31 17:54:26;;;;;;;28.33;14.11;;;;;;;;;;363625;144;863442;-59
2021/10/31 17:55:27;;;;;;;26.38;14.04;;;;;;;;;;363684;144;859015;-61
2021/10/31 17:56:30;;;;;;;26.57;15.63;;;;;;;;;;363465;145;864894;-61
2021/10/31 17:57:31;;;;;;;29.76;15.35;;;;;;;;;;363693;144;859218;-61
2021/10/31 17:58:33;;;;;;;28.86;14.76;;;;;;;;;;363887;144;860454;-61
2021/10/31 17:59:34;;;;;;;27.75;15.49;;;;;;;;;;364107;145;865484;-61
2021/10/31 18:00:37;;;;;;;24.43;14.67;;;;;;;;;;363158;144;865328;-61
2021/10/31 18:01:38;;;;;;;27.48;14.99;;;;;;;;;;364503;144;859386;-61
2021/10/31 18:02:40;;;;;;;26.16;14.70;;;;;;;;;;364441;145;865022;-61
2021/10/31 18:03:42;;;;;;;23.77;14.50;;;;;;;;;;365736;145;857527;-61
2021/10/31 18:04:45;;;;;;;24.92;13.79;;;;;;;;;;364292;144;857274;-61
2021/10/31 18:05:54;;;;;;;23.61;14.72;;;;;;;;;;363662;144;857259;-61
2021/10/31 18:06:53;;;;;;;24.62;14.74;;;;;;;;;;363290;145;857852;-61